Time;durP1;ratioP1;P1;durP2;ratioP2;P2;SDS_P1;SDS_P2;PMS_P1;PMS_P2;Temp;Humidity;BMP_temperature;BMP_pressure;BME280_temperature;BME280_humidity;BME280_pressure;Samples;Min_cycle;Max_cycle;Signal;HPM_P1;HPM_P2
2021/06/07 00:02:09;;;;;;;13.68;12.27;;;19.80;85.10;;;;;;4918928;29;20526;-79
2021/06/07 00:04:35;;;;;;;13.45;12.05;;;19.80;85.30;;;;;;4901847;29;20036;-79
2021/06/07 00:07:04;;;;;;;13.82;12.32;;;19.80;85.30;;;;;;4902032;29;20500;-82
2021/06/07 00:09:30;;;;;;;13.95;12.65;;;19.70;85.60;;;;;;4901745;29;20504;-82
2021/06/07 00:12:00;;;;;;;13.07;11.93;;;19.70;85.80;;;;;;4919076;29;20040;-84
2021/06/07 00:14:33;;;;;;;13.82;11.50;;;19.70;85.80;;;;;;4901954;29;20048;-83
2021/06/07 00:17:00;;;;;;;12.52;11.00;;;19.60;85.70;;;;;;4886107;29;20523;-77
2021/06/07 00:19:30;;;;;;;11.88;10.70;;;19.60;85.50;;;;;;4918655;29;20047;-82
2021/06/07 00:21:57;;;;;;;12.05;10.82;;;19.70;85.30;;;;;;4901627;29;20052;-80
2021/06/07 00:24:24;;;;;;;11.73;10.52;;;19.60;85.40;;;;;;4918527;29;20036;-80
2021/06/07 00:26:50;;;;;;;10.63;9.52;;;19.60;85.30;;;;;;4918443;29;20083;-77
2021/06/07 00:29:16;;;;;;;10.27;9.27;;;19.60;84.90;;;;;;4901999;29;20036;-77
2021/06/07 00:31:43;;;;;;;10.52;9.52;;;19.60;84.50;;;;;;4901689;29;20043;-79
2021/06/07 00:34:10;;;;;;;10.43;9.15;;;19.60;84.20;;;;;;4918659;29;20067;-79
2021/06/07 00:36:36;;;;;;;9.20;8.30;;;19.60;84.00;;;;;;4918657;29;20456;-80
2021/06/07 00:39:05;;;;;;;9.63;8.73;;;19.70;83.70;;;;;;4901852;29;20055;-78
2021/06/07 00:41:31;;;;;;;9.02;8.10;;;19.70;83.60;;;;;;4918402;29;20055;-78
2021/06/07 00:44:00;;;;;;;9.55;8.13;;;19.70;83.50;;;;;;4918899;29;20036;-78
2021/06/07 00:46:27;;;;;;;11.45;8.25;;;19.70;83.20;;;;;;4917697;29;20039;-79
2021/06/07 00:48:54;;;;;;;9.85;8.82;;;19.60;83.10;;;;;;4885299;29;20036;-78
2021/06/07 00:51:21;;;;;;;9.50;8.65;;;19.70;83.10;;;;;;4918417;29;20064;-78
2021/06/07 00:53:47;;;;;;;10.60;9.27;;;19.70;83.20;;;;;;4918059;29;20457;-78
2021/06/07 00:56:13;;;;;;;10.93;9.82;;;19.70;83.30;;;;;;4901031;29;20389;-78
2021/06/07 00:58:42;;;;;;;12.93;9.68;;;19.60;83.60;;;;;;4900936;29;20044;-78
2021/06/07 01:01:10;;;;;;;11.50;10.38;;;19.60;83.50;;;;;;4901217;29;20417;-78
2021/06/07 01:03:38;;;;;;;10.65;9.38;;;19.50;83.90;;;;;;4917621;29;20072;-78
2021/06/07 01:06:05;;;;;;;11.65;9.95;;;19.50;83.90;;;;;;4918083;29;20051;-78
2021/06/07 01:08:32;;;;;;;11.98;9.75;;;19.50;83.90;;;;;;4885094;29;20036;-79
2021/06/07 01:10:58;;;;;;;11.38;10.27;;;19.40;83.90;;;;;;4917807;29;20040;-78
2021/06/07 01:13:24;;;;;;;11.48;10.27;;;19.40;84.20;;;;;;4917802;29;20104;-78
2021/06/07 01:15:52;;;;;;;12.45;11.15;;;19.40;84.50;;;;;;4885279;29;20492;-78
2021/06/07 01:18:20;;;;;;;12.25;11.00;;;19.40;84.70;;;;;;4901122;29;20063;-78
2021/06/07 01:20:48;;;;;;;12.35;11.15;;;19.30;85.00;;;;;;4917267;29;20036;-79
2021/06/07 01:23:15;;;;;;;13.80;12.38;;;19.30;85.50;;;;;;4917666;29;20505;-78
2021/06/07 01:25:42;;;;;;;15.60;12.23;;;19.30;85.50;;;;;;4917671;29;20091;-78
2021/06/07 01:28:11;;;;;;;12.93;11.32;;;19.30;85.40;;;;;;4900885;29;20036;-80
2021/06/07 01:30:40;;;;;;;13.48;12.18;;;19.30;85.60;;;;;;4900786;29;20509;-79
2021/06/07 01:33:07;;;;;;;13.32;12.00;;;19.30;85.50;;;;;;4900613;29;20563;-78
2021/06/07 01:35:34;;;;;;;13.00;11.60;;;19.30;85.50;;;;;;4917308;29;20404;-80
2021/06/07 01:38:01;;;;;;;13.40;12.00;;;19.30;85.50;;;;;;4900673;29;20127;-80
2021/06/07 01:40:33;;;;;;;13.10;11.80;;;19.40;85.20;;;;;;4917630;29;20050;-80
2021/06/07 01:43:00;;;;;;;13.77;11.27;;;19.40;85.00;;;;;;4900686;29;20148;-79
2021/06/07 01:45:28;;;;;;;16.67;11.43;;;19.40;84.90;;;;;;4917461;29;20143;-79
2021/06/07 01:47:56;;;;;;;14.30;10.80;;;19.40;84.70;;;;;;4917546;29;20501;-79
2021/06/07 01:50:22;;;;;;;11.35;9.95;;;19.50;84.50;;;;;;4900415;29;20416;-80
2021/06/07 01:52:49;;;;;;;10.48;9.57;;;19.50;84.10;;;;;;4901758;29;20107;-80
2021/06/07 01:55:16;;;;;;;11.95;10.77;;;19.50;83.80;;;;;;4917935;29;20489;-80
2021/06/07 01:57:46;;;;;;;11.20;10.13;;;19.50;83.80;;;;;;4900034;29;20122;-80
2021/06/07 02:00:26;;;;;;;12.70;10.52;;;19.50;84.10;;;;;;4900146;29;20043;-80
2021/06/07 02:02:52;;;;;;;12.95;11.60;;;19.50;84.20;;;;;;4899734;29;20067;-79
2021/06/07 02:05:27;;;;;;;12.40;11.20;;;19.40;84.50;;;;;;4916899;29;20489;-79
2021/06/07 02:07:58;;;;;;;12.43;11.23;;;19.40;84.70;;;;;;4916865;29;20095;-79
2021/06/07 02:10:32;;;;;;;12.02;10.93;;;19.40;84.70;;;;;;4917072;29;20373;-79
2021/06/07 02:12:58;;;;;;;13.23;11.93;;;19.40;85.00;;;;;;4900307;29;20052;-82
2021/06/07 02:15:24;;;;;;;12.52;11.05;;;19.50;84.30;;;;;;4899657;29;20087;-81
2021/06/07 02:17:50;;;;;;;12.95;11.23;;;19.50;84.70;;;;;;4916831;29;20047;-81
2021/06/07 02:20:22;;;;;;;12.80;11.55;;;19.60;83.90;;;;;;4884476;29;20493;-83
2021/06/07 02:22:48;;;;;;;12.30;11.10;;;19.60;83.80;;;;;;4916659;29;20039;-81
2021/06/07 02:25:19;;;;;;;12.52;11.13;;;19.60;83.60;;;;;;4899976;29;20040;-81
2021/06/07 02:27:46;;;;;;;12.90;11.70;;;19.70;84.10;;;;;;4899606;29;20047;-82
2021/06/07 02:30:15;;;;;;;15.75;11.73;;;19.70;83.30;;;;;;4916595;29;20040;-84
2021/06/07 02:32:42;;;;;;;12.95;11.75;;;19.70;83.30;;;;;;4899887;29;20040;-84
2021/06/07 02:35:13;;;;;;;13.25;11.90;;;19.70;83.20;;;;;;4916389;29;20040;-84
2021/06/07 02:37:39;;;;;;;12.45;11.07;;;19.80;83.20;;;;;;4916635;29;20032;-84
2021/06/07 02:40:10;;;;;;;13.15;11.77;;;19.80;83.20;;;;;;4916822;29;20036;-84
2021/06/07 02:42:39;;;;;;;13.43;11.65;;;19.80;83.30;;;;;;4899896;29;20048;-82
2021/06/07 02:45:09;;;;;;;13.10;11.75;;;19.80;83.60;;;;;;4899787;29;20040;-83
2021/06/07 02:47:36;;;;;;;13.02;11.73;;;19.80;83.70;;;;;;4899826;29;20047;-83
2021/06/07 02:50:07;;;;;;;12.98;11.77;;;19.80;83.60;;;;;;4916611;29;20059;-81
2021/06/07 02:52:33;;;;;;;12.20;10.93;;;19.80;83.50;;;;;;4900254;29;20052;-79
2021/06/07 02:54:59;;;;;;;12.23;10.70;;;19.80;83.50;;;;;;4916555;29;20036;-79
2021/06/07 02:57:25;;;;;;;13.07;11.30;;;19.90;83.40;;;;;;4916689;29;20508;-79
2021/06/07 02:59:51;;;;;;;12.43;10.65;;;19.90;83.40;;;;;;4899841;29;20042;-79
2021/06/07 03:02:17;;;;;;;12.75;10.57;;;19.90;83.50;;;;;;4916586;29;20047;-79
2021/06/07 03:04:43;;;;;;;11.93;10.73;;;19.90;83.10;;;;;;4899942;29;20374;-79
2021/06/07 03:07:09;;;;;;;10.95;9.85;;;19.90;83.00;;;;;;4916612;29;20040;-79
2021/06/07 03:09:35;;;;;;;12.48;11.27;;;20.00;82.70;;;;;;4916236;29;20052;-79
2021/06/07 03:12:03;;;;;;;12.65;11.35;;;20.00;82.50;;;;;;4919691;29;20409;-79
2021/06/07 03:14:29;;;;;;;11.93;10.82;;;20.00;82.40;;;;;;4919848;29;20074;-79
2021/06/07 03:16:55;;;;;;;13.27;11.27;;;20.10;82.30;;;;;;4919656;29;20112;-78
2021/06/07 03:19:21;;;;;;;12.00;10.80;;;20.00;82.40;;;;;;4902683;29;20028;-78
2021/06/07 03:21:47;;;;;;;11.98;10.80;;;20.00;82.50;;;;;;4903101;29;20064;-78
2021/06/07 03:24:13;;;;;;;16.73;10.80;;;20.10;82.60;;;;;;4902925;29;20480;-78
2021/06/07 03:26:39;;;;;;;12.88;10.73;;;20.10;82.60;;;;;;4902758;29;20044;-77
2021/06/07 03:29:05;;;;;;;11.73;9.95;;;20.10;82.60;;;;;;4919366;29;20040;-77
2021/06/07 03:31:31;;;;;;;11.40;10.18;;;20.10;82.30;;;;;;4920160;29;20047;-73
2021/06/07 03:33:57;;;;;;;11.00;9.63;;;20.10;82.10;;;;;;4920222;29;20044;-77
2021/06/07 03:36:23;;;;;;;10.65;9.60;;;20.10;81.80;;;;;;4919579;29;20393;-77
2021/06/07 03:38:49;;;;;;;10.10;9.10;;;20.10;81.70;;;;;;4919104;29;20032;-77
2021/06/07 03:41:15;;;;;;;9.50;8.60;;;20.10;81.60;;;;;;4919112;29;20051;-78
2021/06/07 03:44:02;;;;;;;10.93;9.23;;;20.20;81.40;;;;;;4902670;29;20028;-92
2021/06/07 03:46:28;;;;;;;10.30;9.27;;;20.20;81.20;;;;;;4889291;29;20071;-86
2021/06/07 03:48:54;;;;;;;9.85;8.95;;;20.30;81.00;;;;;;4919348;29;20497;-79
2021/06/07 03:51:20;;;;;;;11.40;8.77;;;20.30;80.80;;;;;;4919401;29;20055;-79
2021/06/07 03:53:46;;;;;;;9.15;8.35;;;20.30;80.50;;;;;;4919582;29;20050;-79
2021/06/07 03:56:12;;;;;;;8.57;7.85;;;20.40;80.40;;;;;;4902111;29;20257;-79
2021/06/07 03:58:38;;;;;;;10.02;8.75;;;20.30;80.20;;;;;;4896854;29;20144;-87
2021/06/07 04:01:04;;;;;;;8.80;8.02;;;20.40;80.10;;;;;;4873996;29;20122;-83
2021/06/07 04:03:33;;;;;;;8.43;7.68;;;20.40;80.00;;;;;;4876391;29;20036;-79
2021/06/07 04:05:58;;;;;;;8.68;7.78;;;20.40;79.90;;;;;;4888716;29;20041;-78
2021/06/07 04:08:24;;;;;;;9.60;8.63;;;20.40;79.70;;;;;;4889796;29;20051;-76
2021/06/07 04:10:50;;;;;;;9.55;8.30;;;20.40;79.60;;;;;;4889648;29;20100;-77
2021/06/07 04:13:16;;;;;;;9.52;8.45;;;20.50;79.60;;;;;;4871715;29;20087;-77
2021/06/07 04:15:42;;;;;;;9.48;7.63;;;20.50;79.50;;;;;;4888132;29;20124;-78
2021/06/07 04:18:08;;;;;;;10.02;8.98;;;20.60;79.30;;;;;;4888900;29;20040;-77
2021/06/07 04:20:34;;;;;;;9.00;7.10;;;20.60;79.30;;;;;;4873222;29;20556;-76
2021/06/07 04:23:01;;;;;;;7.00;6.30;;;20.70;79.40;;;;;;4887958;29;20101;-77
2021/06/07 04:25:28;;;;;;;9.68;7.85;;;20.70;79.30;;;;;;4879567;29;20079;-79
2021/06/07 04:27:56;;;;;;;10.68;7.47;;;20.80;79.20;;;;;;4877245;29;20049;-70
2021/06/07 04:30:23;;;;;;;11.13;7.40;;;20.90;78.90;;;;;;4893464;29;20076;-69
2021/06/07 04:32:51;;;;;;;8.15;7.40;;;21.10;78.60;;;;;;4882548;29;20149;-68
2021/06/07 04:35:17;;;;;;;6.63;5.90;;;21.10;78.50;;;;;;4882679;29;20454;-69
2021/06/07 04:37:51;;;;;;;6.38;5.80;;;21.20;78.30;;;;;;4882049;29;20099;-71
2021/06/07 04:40:23;;;;;;;5.82;4.68;;;21.30;77.90;;;;;;4881761;29;20036;-71
2021/06/07 04:42:50;;;;;;;9.13;6.45;;;21.40;77.60;;;;;;4898843;29;20048;-71
2021/06/07 04:45:17;;;;;;;9.18;7.18;;;21.40;77.20;;;;;;4898825;29;20124;-71
2021/06/07 04:47:44;;;;;;;6.85;5.72;;;21.40;76.70;;;;;;4898621;29;20039;-71
2021/06/07 04:50:11;;;;;;;7.82;5.75;;;21.40;76.80;;;;;;4898726;29;20055;-72
2021/06/07 04:53:00;;;;;;;8.02;5.43;;;21.30;76.30;;;;;;4882172;29;20061;-75
2021/06/07 04:55:36;;;;;;;7.05;5.30;;;21.30;75.90;;;;;;4898616;29;20509;-76
2021/06/07 04:58:11;;;;;;;5.63;5.07;;;21.30;75.10;;;;;;4881898;29;20036;-74
2021/06/07 05:00:40;;;;;;;5.15;4.75;;;21.30;75.50;;;;;;4898544;29;20128;-74
2021/06/07 05:03:06;;;;;;;7.22;5.15;;;21.20;75.70;;;;;;4898660;29;20055;-72
2021/06/07 05:05:32;;;;;;;5.25;4.85;;;21.20;75.70;;;;;;4898741;29;20041;-73
2021/06/07 05:07:58;;;;;;;5.38;4.88;;;21.20;75.70;;;;;;4898735;29;20029;-73
2021/06/07 05:10:24;;;;;;;5.97;4.93;;;21.20;75.80;;;;;;4898618;29;20446;-75
2021/06/07 05:12:51;;;;;;;6.03;4.75;;;21.20;75.70;;;;;;4898483;29;20040;-72
2021/06/07 05:15:18;;;;;;;5.45;4.93;;;21.30;75.70;;;;;;4898173;29;20557;-71
2021/06/07 05:17:44;;;;;;;5.70;5.20;;;21.40;75.60;;;;;;4898227;29;20100;-72
2021/06/07 05:20:14;;;;;;;6.00;4.97;;;21.60;75.20;;;;;;4866405;29;20076;-75
2021/06/07 05:22:40;;;;;;;7.65;5.28;;;21.80;74.90;;;;;;4898498;29;20465;-77
2021/06/07 05:25:07;;;;;;;7.10;4.78;;;21.60;74.60;;;;;;4898333;29;20049;-74
2021/06/07 05:27:33;;;;;;;5.10;3.47;;;21.60;74.40;;;;;;4881313;29;20165;-73
2021/06/07 05:30:00;;;;;;;3.75;3.42;;;21.40;73.60;;;;;;4881400;29;20058;-75
2021/06/07 05:32:27;;;;;;;4.40;4.00;;;21.40;73.70;;;;;;4898064;29;20028;-73
2021/06/07 05:34:53;;;;;;;4.28;3.70;;;21.40;74.00;;;;;;4881223;29;20047;-73
2021/06/07 05:37:20;;;;;;;4.25;3.85;;;21.30;74.20;;;;;;4898136;29;20043;-73
2021/06/07 05:39:47;;;;;;;4.63;3.80;;;21.30;74.20;;;;;;4898121;29;20052;-73
2021/06/07 05:42:13;;;;;;;5.05;3.58;;;21.20;74.50;;;;;;4881412;29;20044;-76
2021/06/07 05:44:39;;;;;;;4.55;3.60;;;21.20;74.40;;;;;;4881225;29;20048;-75
2021/06/07 05:47:05;;;;;;;3.40;3.10;;;21.20;74.00;;;;;;4897751;29;20092;-74
2021/06/07 05:49:31;;;;;;;5.32;4.03;;;21.30;74.40;;;;;;4898122;29;20048;-74
2021/06/07 05:51:57;;;;;;;5.65;4.20;;;21.50;74.40;;;;;;4897807;29;20056;-74
2021/06/07 05:54:23;;;;;;;6.45;4.20;;;21.50;74.20;;;;;;4897969;29;20154;-74
2021/06/07 05:56:53;;;;;;;7.15;3.95;;;21.40;74.40;;;;;;4897734;29;20494;-73
2021/06/07 05:59:20;;;;;;;5.30;3.97;;;21.40;74.60;;;;;;4865408;29;20126;-75
2021/06/07 06:01:47;;;;;;;8.00;4.40;;;21.30;74.60;;;;;;4897775;29;20052;-74
2021/06/07 06:04:13;;;;;;;4.50;4.10;;;21.30;75.00;;;;;;4880847;29;20044;-76
2021/06/07 06:06:39;;;;;;;5.43;3.95;;;21.20;75.50;;;;;;4897616;29;20033;-76
2021/06/07 06:09:05;;;;;;;4.63;3.90;;;21.20;75.30;;;;;;4897632;29;20033;-72
2021/06/07 06:11:31;;;;;;;5.55;4.20;;;21.20;75.30;;;;;;4880516;29;20036;-73
2021/06/07 06:13:57;;;;;;;8.10;4.22;;;21.10;75.50;;;;;;4897288;29;20119;-73
2021/06/07 06:16:23;;;;;;;6.20;4.20;;;21.00;76.00;;;;;;4880769;29;20090;-74
2021/06/07 06:18:49;;;;;;;5.97;4.28;;;20.90;76.40;;;;;;4897911;29;20071;-74
2021/06/07 06:21:15;;;;;;;9.50;4.30;;;21.00;76.50;;;;;;4897830;29;20076;-74
2021/06/07 06:23:42;;;;;;;5.13;4.60;;;20.90;76.70;;;;;;4897392;29;20109;-74
2021/06/07 06:26:09;;;;;;;5.50;4.32;;;20.90;76.70;;;;;;4880586;29;20048;-75
2021/06/07 06:28:36;;;;;;;5.22;4.03;;;20.90;77.00;;;;;;4897465;29;20041;-73
2021/06/07 06:31:06;;;;;;;4.82;4.40;;;20.90;77.40;;;;;;4897635;29;20104;-74
2021/06/07 06:33:33;;;;;;;4.80;4.22;;;21.00;77.00;;;;;;4880868;29;20502;-73
2021/06/07 06:35:59;;;;;;;5.25;4.22;;;21.10;76.70;;;;;;4880670;29;20509;-73
2021/06/07 06:38:25;;;;;;;5.57;4.10;;;21.10;76.90;;;;;;4897186;29;20041;-73
2021/06/07 06:40:54;;;;;;;5.70;4.00;;;21.00;76.90;;;;;;4897141;29;20520;-73
2021/06/07 06:43:21;;;;;;;4.78;4.32;;;21.10;76.90;;;;;;4897129;29;20174;-75
2021/06/07 06:45:47;;;;;;;5.45;4.30;;;21.10;77.30;;;;;;4883875;29;20072;-71
2021/06/07 06:48:16;;;;;;;5.75;4.95;;;21.10;77.40;;;;;;4900824;29;20056;-72
2021/06/07 06:50:43;;;;;;;8.25;4.75;;;21.00;77.80;;;;;;4883990;29;20135;-75
2021/06/07 06:53:13;;;;;;;8.40;4.57;;;21.00;77.80;;;;;;4883782;29;20057;-73
2021/06/07 06:55:40;;;;;;;3.90;3.60;;;20.90;78.10;;;;;;4900582;29;20126;-72
2021/06/07 06:58:09;;;;;;;6.03;3.72;;;21.10;77.80;;;;;;4901071;29;20041;-72
2021/06/07 07:00:36;;;;;;;4.38;3.40;;;21.30;77.00;;;;;;4900889;29;20032;-72
2021/06/07 07:03:14;;;;;;;4.03;3.60;;;21.50;76.70;;;;;;4883950;29;20044;-73
2021/06/07 07:05:40;;;;;;;4.15;3.75;;;21.70;76.00;;;;;;4883979;29;20056;-73
2021/06/07 07:08:07;;;;;;;4.00;3.60;;;21.70;75.60;;;;;;4884041;29;20091;-73
2021/06/07 07:10:35;;;;;;;4.10;3.22;;;21.80;75.60;;;;;;4900617;29;20036;-73
2021/06/07 07:13:01;;;;;;;4.03;3.70;;;21.80;75.90;;;;;;4900845;29;20493;-72
2021/06/07 07:15:27;;;;;;;3.97;3.40;;;21.90;75.60;;;;;;4883866;29;20072;-73
2021/06/07 07:17:53;;;;;;;5.10;3.58;;;21.90;76.00;;;;;;4900580;29;20036;-73
2021/06/07 07:20:19;;;;;;;5.85;3.45;;;22.00;75.90;;;;;;4900742;29;20040;-72
2021/06/07 07:22:45;;;;;;;6.07;3.72;;;22.10;75.80;;;;;;4883705;29;20056;-74
2021/06/07 07:25:12;;;;;;;5.93;3.90;;;22.20;75.80;;;;;;4883613;29;20040;-74
2021/06/07 07:27:39;;;;;;;3.38;3.10;;;22.40;75.50;;;;;;4883669;29;20067;-74
2021/06/07 07:30:08;;;;;;;4.28;3.88;;;22.50;75.20;;;;;;4900559;29;20120;-74
2021/06/07 07:32:39;;;;;;;5.68;3.85;;;22.70;74.90;;;;;;4868170;29;20043;-74
2021/06/07 07:35:06;;;;;;;4.30;3.85;;;22.70;74.50;;;;;;4900135;29;20040;-73
2021/06/07 07:37:34;;;;;;;3.63;3.10;;;22.60;73.80;;;;;;4899862;29;20048;-73
2021/06/07 07:40:01;;;;;;;8.15;3.40;;;22.70;74.30;;;;;;4899880;29;20055;-73
2021/06/07 07:42:27;;;;;;;5.93;3.35;;;22.60;73.90;;;;;;4882973;29;20564;-73
2021/06/07 07:44:53;;;;;;;4.65;2.63;;;22.70;73.50;;;;;;4899694;29;20123;-74
2021/06/07 07:47:20;;;;;;;3.60;2.67;;;22.70;72.80;;;;;;4883106;29;20092;-74
2021/06/07 07:49:46;;;;;;;2.60;2.40;;;22.70;73.00;;;;;;4900098;29;20028;-72
2021/06/07 07:52:12;;;;;;;2.60;2.40;;;22.70;72.70;;;;;;4899791;29;20060;-72
2021/06/07 07:54:38;;;;;;;3.22;2.33;;;22.70;72.60;;;;;;4900102;29;20048;-72
2021/06/07 07:57:06;;;;;;;3.75;2.53;;;22.60;72.20;;;;;;4899097;29;20045;-72
2021/06/07 07:59:33;;;;;;;3.30;2.33;;;22.40;72.40;;;;;;4899711;29;20123;-72
2021/06/07 08:02:00;;;;;;;3.25;2.13;;;22.50;72.60;;;;;;4899797;29;20529;-72
2021/06/07 08:04:26;;;;;;;5.80;2.20;;;22.50;72.50;;;;;;4899688;29;20033;-72
2021/06/07 08:06:52;;;;;;;1.95;1.85;;;22.60;72.40;;;;;;4882571;29;20040;-72
2021/06/07 08:09:18;;;;;;;2.88;1.80;;;22.50;70.90;;;;;;4899626;29;20127;-72
2021/06/07 08:11:44;;;;;;;2.00;1.90;;;22.40;71.60;;;;;;4882808;29;20127;-72
2021/06/07 08:14:10;;;;;;;2.28;2.08;;;22.50;72.00;;;;;;4899512;29;20343;-73
2021/06/07 08:16:38;;;;;;;2.70;2.50;;;22.50;71.80;;;;;;4883345;29;20044;-72
2021/06/07 08:19:04;;;;;;;2.00;1.90;;;22.50;71.70;;;;;;4899549;29;20041;-77
2021/06/07 08:21:29;;;;;;;2.55;2.20;;;22.60;72.00;;;;;;4899771;29;20382;-76
2021/06/07 08:23:57;;;;;;;2.78;2.50;;;22.60;72.40;;;;;;4899751;29;20045;-77
2021/06/07 08:26:23;;;;;;;4.53;2.90;;;22.60;72.20;;;;;;4899601;29;20044;-76
2021/06/07 08:28:49;;;;;;;3.47;3.00;;;22.60;72.60;;;;;;4899479;29;20083;-75
2021/06/07 08:31:15;;;;;;;3.67;3.10;;;22.70;73.00;;;;;;4899259;29;20405;-75
2021/06/07 08:33:41;;;;;;;5.55;2.88;;;22.70;73.30;;;;;;4882670;29;20053;-75
2021/06/07 08:36:07;;;;;;;4.18;2.95;;;22.70;73.70;;;;;;4899348;29;20044;-76
2021/06/07 08:38:33;;;;;;;4.50;2.70;;;22.70;74.00;;;;;;4899349;29;20041;-75
2021/06/07 08:40:59;;;;;;;3.45;2.80;;;22.70;74.10;;;;;;4899226;29;20079;-76
2021/06/07 08:43:26;;;;;;;2.70;2.50;;;22.70;73.90;;;;;;4882339;29;20048;-75
2021/06/07 08:45:53;;;;;;;2.97;2.10;;;22.70;73.30;;;;;;4898957;29;20028;-76
2021/06/07 08:48:21;;;;;;;2.20;2.10;;;22.70;73.60;;;;;;4882477;29;20040;-76
2021/06/07 08:50:47;;;;;;;2.88;2.67;;;22.70;73.60;;;;;;4898951;29;20051;-76
2021/06/07 08:53:13;;;;;;;2.45;1.77;;;22.70;72.50;;;;;;4899256;29;20064;-76
2021/06/07 08:55:40;;;;;;;1.83;1.70;;;22.70;71.60;;;;;;4898811;29;20041;-76
2021/06/07 08:58:06;;;;;;;2.08;1.70;;;22.60;71.90;;;;;;4882262;29;20414;-76
2021/06/07 09:00:38;;;;;;;1.50;1.40;;;22.60;70.30;;;;;;4882181;29;20036;-76
2021/06/07 09:03:09;;;;;;;1.65;1.55;;;22.60;69.80;;;;;;4898498;29;20073;-75
2021/06/07 09:05:36;;;;;;;1.60;1.50;;;22.60;70.10;;;;;;4898463;29;20127;-75
2021/06/07 09:08:04;;;;;;;3.13;1.48;;;22.60;70.50;;;;;;4897600;29;20065;-76
2021/06/07 09:10:33;;;;;;;1.70;1.48;;;22.50;69.80;;;;;;4898404;29;20039;-75
2021/06/07 09:13:03;;;;;;;1.55;1.45;;;22.50;69.50;;;;;;4882295;29;20045;-75
2021/06/07 09:15:43;;;;;;;1.55;1.25;;;22.50;69.60;;;;;;4866029;29;20136;-75
2021/06/07 09:18:32;;;;;;;1.70;1.60;;;22.50;69.80;;;;;;4866226;29;20041;-75
2021/06/07 09:21:12;;;;;;;2.42;1.40;;;22.50;69.70;;;;;;4898304;29;20076;-75
2021/06/07 09:23:47;;;;;;;4.18;1.80;;;22.50;70.10;;;;;;4881480;29;20052;-76
2021/06/07 09:26:38;;;;;;;2.90;1.55;;;22.40;69.70;;;;;;4881276;29;20112;-76
2021/06/07 09:29:05;;;;;;;3.83;1.33;;;22.50;69.90;;;;;;4881878;29;20071;-76
2021/06/07 09:31:43;;;;;;;1.85;1.35;;;22.50;70.20;;;;;;4898272;29;20521;-76
2021/06/07 09:34:11;;;;;;;1.85;1.63;;;22.50;70.20;;;;;;4898613;29;20063;-76
2021/06/07 09:36:40;;;;;;;3.13;1.50;;;22.40;70.40;;;;;;4881377;29;20040;-75
2021/06/07 09:39:23;;;;;;;1.50;1.40;;;22.50;70.60;;;;;;4898198;29;20033;-76
2021/06/07 09:41:58;;;;;;;3.33;1.92;;;22.50;70.10;;;;;;4881294;29;20052;-76
2021/06/07 09:44:53;;;;;;;1.65;1.55;;;22.50;69.60;;;;;;4881488;29;20036;-76
2021/06/07 09:47:33;;;;;;;2.00;1.90;;;22.50;68.60;;;;;;4897832;29;20040;-77
2021/06/07 09:50:10;;;;;;;2.05;1.95;;;22.50;69.40;;;;;;4881265;29;20048;-77
2021/06/07 09:52:45;;;;;;;2.08;1.80;;;22.40;69.40;;;;;;4881228;29;20576;-75
2021/06/07 09:55:12;;;;;;;;;;;22.50;69.70;;;;;;4898486;29;20077;-75
2021/06/07 09:57:47;;;;;;;1.40;1.33;;;22.50;69.40;;;;;;4897582;29;20501;-76
2021/06/07 10:00:33;;;;;;;1.80;1.70;;;22.50;69.30;;;;;;4881085;29;20048;-76
2021/06/07 10:03:16;;;;;;;1.88;1.55;;;22.50;69.50;;;;;;4897764;29;20052;-76
2021/06/07 10:05:42;;;;;;;2.28;2.08;;;22.60;69.20;;;;;;4897536;29;20091;-76
2021/06/07 10:08:08;;;;;;;2.63;2.05;;;22.60;69.30;;;;;;4897722;29;20029;-76
2021/06/07 10:10:34;;;;;;;2.55;2.35;;;22.60;69.60;;;;;;4897613;29;20192;-76
2021/06/07 10:13:05;;;;;;;2.78;2.20;;;22.50;69.50;;;;;;4880907;29;20044;-76
2021/06/07 10:15:42;;;;;;;2.10;1.90;;;22.50;69.60;;;;;;4897638;29;20093;-75
2021/06/07 10:18:15;;;;;;;2.40;1.92;;;22.60;69.90;;;;;;4881131;29;20072;-75
2021/06/07 10:20:51;;;;;;;2.15;2.03;;;22.60;70.00;;;;;;4896836;29;20036;-76
2021/06/07 10:23:29;;;;;;;3.08;1.75;;;22.60;69.00;;;;;;4880770;29;20071;-76
2021/06/07 10:25:59;;;;;;;3.42;1.77;;;22.60;69.00;;;;;;4880898;29;20161;-76
2021/06/07 10:28:34;;;;;;;2.30;2.10;;;22.60;68.70;;;;;;4880422;29;20505;-76
2021/06/07 10:31:15;;;;;;;1.70;1.60;;;22.70;68.80;;;;;;4880530;29;20036;-75
2021/06/07 10:33:54;;;;;;;2.40;2.20;;;22.70;69.10;;;;;;4897231;29;20045;-76
2021/06/07 10:36:23;;;;;;;2.42;2.00;;;22.70;69.30;;;;;;4897973;29;20037;-75
2021/06/07 10:41:43;;;;;;;2.10;1.90;;;22.70;68.60;;;;;;4892744;29;20060;-75
2021/06/07 10:44:12;;;;;;;3.33;2.13;;;22.70;69.10;;;;;;4897473;29;20453;-77
2021/06/07 10:46:47;;;;;;;2.28;1.90;;;22.80;68.90;;;;;;4880252;29;20032;-79
2021/06/07 10:50:08;;;;;;;3.60;1.58;;;22.80;68.90;;;;;;4897437;29;20045;-78
2021/06/07 10:52:50;;;;;;;1.58;1.48;;;22.80;67.20;;;;;;4857754;29;20181;-79
2021/06/07 10:55:21;;;;;;;3.25;1.63;;;22.80;67.10;;;;;;4877712;29;20048;-79
2021/06/07 10:57:48;;;;;;;1.40;1.30;;;22.80;67.40;;;;;;4878721;29;20132;-76
2021/06/07 11:00:31;;;;;;;3.90;1.50;;;22.90;68.30;;;;;;4878706;29;20052;-77
2021/06/07 11:03:01;;;;;;;1.27;1.27;;;22.90;67.50;;;;;;4878485;29;20525;-86
2021/06/07 11:05:31;;;;;;;2.50;1.25;;;22.90;67.20;;;;;;4862794;29;20067;-81
2021/06/07 11:08:02;;;;;;;1.63;1.23;;;22.90;66.00;;;;;;4878204;29;20037;-83
2021/06/07 11:10:32;;;;;;;3.58;1.60;;;22.90;65.20;;;;;;4878801;29;20045;-84
2021/06/07 11:13:04;;;;;;;1.55;1.30;;;22.90;65.40;;;;;;4879093;29;20481;-85
2021/06/07 11:15:35;;;;;;;1.50;1.40;;;23.00;65.80;;;;;;4879298;29;20049;-90
2021/06/07 11:18:34;;;;;;;1.38;1.33;;;23.00;64.90;;;;;;4878853;29;20129;-87
2021/06/07 11:21:07;;;;;;;1.15;1.05;;;23.00;65.20;;;;;;4877435;29;20459;-80
2021/06/07 11:23:43;;;;;;;1.27;1.20;;;23.00;65.20;;;;;;4880858;29;20053;-86
2021/06/07 11:26:11;;;;;;;1.40;1.30;;;23.00;66.10;;;;;;4878070;29;20109;-75
2021/06/07 11:28:48;;;;;;;1.88;1.45;;;23.00;66.00;;;;;;4878654;29;20075;-79
2021/06/07 11:31:17;;;;;;;1.48;1.42;;;23.00;66.00;;;;;;4879520;29;20048;-79
2021/06/07 11:33:59;;;;;;;2.03;1.40;;;22.90;65.00;;;;;;4882024;29;20032;-77
2021/06/07 11:36:37;;;;;;;1.75;1.10;;;22.90;66.30;;;;;;4881461;29;20391;-73
2021/06/07 11:39:07;;;;;;;2.17;1.70;;;23.00;67.70;;;;;;4880472;29;20037;-71
2021/06/07 11:41:56;;;;;;;2.20;1.30;;;23.00;67.60;;;;;;4880193;29;20044;-77
2021/06/07 11:44:54;;;;;;;2.05;1.50;;;23.00;69.20;;;;;;4881607;29;20037;-76
2021/06/07 11:47:48;;;;;;;3.55;1.67;;;23.00;69.20;;;;;;4882109;29;20093;-76
2021/06/07 11:50:29;;;;;;;3.38;1.52;;;23.00;69.90;;;;;;4880322;29;20048;-76
2021/06/07 11:52:55;;;;;;;2.00;1.40;;;23.00;69.80;;;;;;4897156;29;20188;-77
2021/06/07 11:55:32;;;;;;;2.38;1.60;;;23.00;68.20;;;;;;4883007;29;20047;-76
2021/06/07 11:58:11;;;;;;;1.67;1.50;;;22.90;67.10;;;;;;4867647;29;20032;-75
2021/06/07 12:00:43;;;;;;;1.40;1.30;;;22.90;68.30;;;;;;4900175;29;20135;-79
2021/06/07 12:03:16;;;;;;;2.20;1.35;;;23.00;66.60;;;;;;4899952;29;20051;-77
2021/06/07 12:05:42;;;;;;;1.20;1.20;;;23.00;67.80;;;;;;4900073;29;20040;-76
2021/06/07 12:08:11;;;;;;;1.40;1.00;;;23.00;68.00;;;;;;4883086;29;20128;-76
2021/06/07 12:10:39;;;;;;;1.88;1.00;;;23.00;68.10;;;;;;4882508;29;20041;-77
2021/06/07 12:13:17;;;;;;;2.85;1.15;;;23.00;68.50;;;;;;4899508;29;20063;-77
2021/06/07 12:15:48;;;;;;;0.88;0.88;;;23.10;67.80;;;;;;4899576;29;20043;-79
2021/06/07 12:18:31;;;;;;;1.23;1.13;;;23.00;66.10;;;;;;4899650;29;20153;-77
2021/06/07 12:21:03;;;;;;;4.13;1.20;;;23.00;64.60;;;;;;4882912;29;20033;-76
2021/06/07 12:23:32;;;;;;;1.73;1.23;;;23.00;63.50;;;;;;4899364;29;20045;-76
2021/06/07 12:28:38;;;;;;;2.25;1.08;;;22.90;64.60;;;;;;4882798;29;20513;-76
2021/06/07 12:31:04;;;;;;;1.60;1.00;;;22.90;63.60;;;;;;4899547;29;20119;-80
2021/06/07 12:33:33;;;;;;;1.13;1.13;;;22.90;63.80;;;;;;4882834;29;20406;-78
2021/06/07 12:36:01;;;;;;;1.35;1.27;;;22.90;63.20;;;;;;4900544;29;20160;-76
2021/06/07 12:38:27;;;;;;;1.33;1.23;;;22.90;64.60;;;;;;4882560;29;20033;-78
2021/06/07 12:40:55;;;;;;;2.38;1.30;;;23.00;64.50;;;;;;4882347;29;20044;-79
2021/06/07 12:43:26;;;;;;;1.80;1.30;;;23.00;64.40;;;;;;4882081;29;20045;-80
2021/06/07 12:45:57;;;;;;;1.67;1.50;;;23.00;65.20;;;;;;4899622;29;20413;-75
2021/06/07 12:48:37;;;;;;;1.17;1.17;;;23.00;64.70;;;;;;4899474;29;20480;-76
2021/06/07 12:51:18;;;;;;;1.38;1.27;;;23.10;65.70;;;;;;4883339;29;20039;-76
2021/06/07 12:53:46;;;;;;;1.35;1.35;;;23.10;65.60;;;;;;4882435;29;20041;-76
2021/06/07 12:56:20;;;;;;;2.17;1.45;;;23.10;65.70;;;;;;4899429;29;20033;-76
2021/06/07 12:58:54;;;;;;;1.30;1.20;;;23.20;66.40;;;;;;4882035;29;20040;-76
2021/06/07 13:01:38;;;;;;;3.08;1.90;;;23.20;66.90;;;;;;4898733;29;20048;-76